Time;durP1;ratioP1;P1;durP2;ratioP2;P2;SDS_P1;SDS_P2;PMS_P1;PMS_P2;Temp;Humidity;BMP_temperature;BMP_pressure;BME280_temperature;BME280_humidity;BME280_pressure;Samples;Min_cycle;Max_cycle;Signal;HPM_P1;HPM_P2
2022/04/02 00:03:48;;;;;;;9.50;4.80;;;22.40;55.80;;;;;;215848;1293;22602;-42
2022/04/02 00:08:52;;;;;;;8.80;4.60;;;22.40;55.60;;;;;;215631;1294;24444;-45
2022/04/02 00:13:56;;;;;;;10.70;4.50;;;22.30;55.40;;;;;;215558;1293;25261;-43
2022/04/02 00:19:00;;;;;;;9.90;4.50;;;22.30;55.30;;;;;;215918;1293;22563;-43
2022/04/02 00:24:06;;;;;;;9.00;4.50;;;22.20;55.20;;;;;;214991;1296;25451;-44
2022/04/02 00:29:11;;;;;;;8.10;4.00;;;22.20;55.50;;;;;;215765;1293;22577;-42
2022/04/02 00:34:14;;;;;;;7.00;3.70;;;22.10;55.20;;;;;;215302;1296;22743;-46
2022/04/02 00:39:20;;;;;;;10.00;4.50;;;22.10;55.30;;;;;;216105;1294;22583;-45
2022/04/02 00:44:26;;;;;;;9.90;4.00;;;22.10;55.20;;;;;;215617;1294;22589;-43
2022/04/02 00:49:31;;;;;;;9.50;3.60;;;22.30;54.60;;;;;;215616;1294;22589;-44
2022/04/02 00:54:35;;;;;;;9.30;3.70;;;22.50;54.30;;;;;;215957;1293;22607;-43
2022/04/02 00:59:39;;;;;;;10.20;4.10;;;22.60;53.80;;;;;;215893;1293;24425;-45
2022/04/02 01:04:43;;;;;;;7.50;3.60;;;22.70;53.60;;;;;;215870;1293;22564;-43
2022/04/02 01:09:47;;;;;;;10.20;4.10;;;22.70;53.30;;;;;;215435;1293;22625;-44
2022/04/02 01:14:51;;;;;;;7.90;3.90;;;22.70;53.20;;;;;;215912;1294;25348;-42
2022/04/02 01:20:01;;;;;;;8.50;3.70;;;22.70;53.30;;;;;;215089;1296;22585;-44
2022/04/02 01:25:08;;;;;;;8.60;3.30;;;22.70;52.90;;;;;;215955;1293;24272;-44
2022/04/02 01:30:18;;;;;;;7.60;3.90;;;22.60;52.80;;;;;;215833;1293;23967;-44
2022/04/02 01:35:22;;;;;;;7.80;3.40;;;22.60;52.90;;;;;;215334;1296;22598;-43
2022/04/02 01:40:41;;;;;;;9.50;3.30;;;22.60;53.00;;;;;;215814;1294;25057;-43
2022/04/02 01:45:45;;;;;;;6.80;3.30;;;22.60;52.80;;;;;;215607;1294;22755;-43
2022/04/02 01:50:56;;;;;;;8.40;3.70;;;22.50;53.00;;;;;;215592;1293;22588;-43
2022/04/02 01:56:02;;;;;;;7.30;3.30;;;22.50;52.60;;;;;;215075;1296;23196;-43
2022/04/02 02:01:09;;;;;;;9.70;3.50;;;22.50;52.60;;;;;;215581;1293;24266;-44
2022/04/02 02:06:14;;;;;;;6.30;3.20;;;22.50;52.50;;;;;;215416;1296;24484;-44
2022/04/02 02:11:23;;;;;;;6.30;2.90;;;22.50;52.40;;;;;;215314;1296;22586;-44
2022/04/02 02:17:02;;;;;;;5.80;3.10;;;22.40;52.20;;;;;;215916;1294;24344;-43
2022/04/02 02:22:06;;;;;;;5.50;3.00;;;22.40;52.10;;;;;;216010;1294;22739;-44
2022/04/02 02:27:10;;;;;;;5.40;2.90;;;22.50;52.20;;;;;;215650;1293;25346;-45
2022/04/02 02:32:14;;;;;;;6.30;2.70;;;22.50;52.00;;;;;;215862;1294;24277;-43
2022/04/02 02:37:18;;;;;;;5.60;2.90;;;22.60;51.80;;;;;;216015;1293;25292;-46
2022/04/02 02:42:31;;;;;;;5.60;2.90;;;22.60;51.70;;;;;;215933;1294;25355;-44
2022/04/02 02:47:52;;;;;;;4.80;2.90;;;22.60;52.00;;;;;;215894;1293;22726;-45
2022/04/02 02:53:00;;;;;;;7.30;3.20;;;22.60;51.70;;;;;;215978;1294;25362;-42
2022/04/02 02:58:04;;;;;;;5.80;2.70;;;22.50;51.60;;;;;;215989;1294;25244;-43
2022/04/02 03:03:09;;;;;;;5.40;2.60;;;22.50;51.60;;;;;;215994;1294;22558;-43
2022/04/02 03:08:14;;;;;;;6.20;2.80;;;22.40;51.60;;;;;;215303;1296;27702;-43
2022/04/02 03:13:23;;;;;;;5.60;2.70;;;22.40;51.00;;;;;;215982;1293;25355;-43
2022/04/02 03:18:28;;;;;;;4.30;2.50;;;22.40;51.90;;;;;;215587;1294;22580;-43
2022/04/02 03:23:48;;;;;;;4.60;2.70;;;22.40;51.30;;;;;;215489;1294;22577;-44
2022/04/02 03:29:00;;;;;;;5.00;2.70;;;22.40;51.30;;;;;;215786;1293;22729;-46
2022/04/02 03:34:08;;;;;;;6.60;2.60;;;22.40;51.40;;;;;;215518;1294;25410;-45
2022/04/02 03:39:11;;;;;;;4.60;2.70;;;22.50;51.20;;;;;;215742;1294;22588;-44
2022/04/02 03:44:15;;;;;;;5.40;2.80;;;22.50;51.00;;;;;;215628;1293;25295;-44
2022/04/02 03:49:22;;;;;;;4.70;2.60;;;22.50;50.80;;;;;;215693;1296;25434;-47
2022/04/02 03:54:26;;;;;;;4.90;2.60;;;22.50;50.80;;;;;;215953;1294;25365;-42
2022/04/02 03:59:33;;;;;;;6.40;2.90;;;22.50;50.70;;;;;;215728;1293;24324;-43
2022/04/02 04:04:37;;;;;;;6.10;2.80;;;22.50;50.80;;;;;;215913;1296;22586;-45
2022/04/02 04:09:41;;;;;;;6.10;2.80;;;22.40;50.70;;;;;;215674;1293;24342;-43
2022/04/02 04:14:47;;;;;;;5.70;2.90;;;22.40;50.70;;;;;;215994;1293;23948;-43
2022/04/02 04:19:54;;;;;;;5.70;2.60;;;22.40;51.10;;;;;;215968;1294;23090;-41
2022/04/02 04:24:58;;;;;;;5.60;3.00;;;22.30;50.80;;;;;;215793;1294;24268;-45
2022/04/02 04:30:04;;;;;;;7.20;3.10;;;22.30;50.80;;;;;;215713;1294;25296;-43
2022/04/02 04:35:09;;;;;;;5.30;2.80;;;22.30;50.90;;;;;;215429;1296;22589;-46
2022/04/02 04:40:16;;;;;;;4.50;2.30;;;22.20;50.90;;;;;;215875;1294;23745;-44
2022/04/02 04:45:22;;;;;;;4.60;2.80;;;22.20;50.90;;;;;;215732;1294;268320;-43
2022/04/02 04:50:28;;;;;;;5.80;2.60;;;22.20;50.30;;;;;;215878;1294;22713;-41
2022/04/02 04:55:35;;;;;;;4.10;2.20;;;22.20;50.70;;;;;;215500;1294;24944;-44
2022/04/02 05:00:43;;;;;;;5.60;2.40;;;22.20;50.80;;;;;;215651;1294;26519;-45
2022/04/02 05:05:48;;;;;;;4.10;2.40;;;22.30;50.50;;;;;;215773;1294;25920;-44
2022/04/02 05:10:55;;;;;;;5.50;2.70;;;22.30;50.50;;;;;;215697;1296;25490;-43
2022/04/02 05:16:08;;;;;;;5.30;2.80;;;22.40;50.70;;;;;;215982;1294;25086;-46
2022/04/02 05:21:15;;;;;;;4.00;2.20;;;22.30;50.30;;;;;;215983;1296;23955;-43
2022/04/02 05:26:22;;;;;;;5.20;2.50;;;22.30;50.60;;;;;;215475;1296;22604;-45
2022/04/02 05:31:36;;;;;;;4.30;2.00;;;22.30;50.50;;;;;;215688;1296;22607;-43
2022/04/02 05:36:41;;;;;;;6.20;2.80;;;22.30;50.40;;;;;;216004;1294;22615;-43
2022/04/02 05:41:48;;;;;;;2.80;1.90;;;22.20;50.40;;;;;;215599;1294;26744;-43
2022/04/02 05:46:52;;;;;;;4.60;2.50;;;22.20;50.40;;;;;;215612;1294;22602;-43
2022/04/02 05:52:45;;;;;;;4.80;2.30;;;22.20;50.40;;;;;;215919;1294;22568;-44
2022/04/02 05:57:52;;;;;;;5.40;2.40;;;22.20;50.40;;;;;;215984;1294;22599;-44
2022/04/02 06:02:55;;;;;;;4.40;2.50;;;22.10;50.60;;;;;;215985;1293;26065;-43
2022/04/02 06:08:02;;;;;;;4.70;2.20;;;22.10;50.50;;;;;;215030;1299;24303;-43
2022/04/02 06:13:06;;;;;;;3.60;2.00;;;22.00;50.50;;;;;;215863;1294;22626;-43
2022/04/02 06:18:12;;;;;;;4.50;2.30;;;22.00;50.50;;;;;;215830;1296;24089;-47
2022/04/02 06:23:19;;;;;;;3.40;2.30;;;22.00;50.50;;;;;;215314;1298;24337;-43
2022/04/02 06:28:23;;;;;;;7.40;2.70;;;22.00;50.50;;;;;;215792;1293;25205;-43
2022/04/02 06:33:28;;;;;;;6.40;2.00;;;21.90;50.60;;;;;;215450;1293;22579;-47
2022/04/02 06:38:34;;;;;;;7.70;2.80;;;21.90;50.50;;;;;;215770;1293;26682;-43
2022/04/02 06:43:38;;;;;;;10.60;2.40;;;21.90;50.00;;;;;;215823;1294;22579;-46
2022/04/02 06:48:45;;;;;;;5.80;2.30;;;21.90;50.60;;;;;;215530;1296;24350;-42
2022/04/02 06:53:49;;;;;;;6.90;2.70;;;21.90;50.80;;;;;;215937;1294;24479;-45
2022/04/02 06:58:56;;;;;;;4.90;2.10;;;22.00;50.70;;;;;;215281;1296;25623;-41
2022/04/02 07:03:59;;;;;;;6.70;2.30;;;22.10;50.20;;;;;;215433;1294;22589;-42
2022/04/02 07:09:04;;;;;;;7.40;2.70;;;22.20;50.40;;;;;;215530;1294;22572;-42
2022/04/02 07:14:09;;;;;;;5.40;2.40;;;22.10;50.60;;;;;;214940;1296;24392;-45
2022/04/02 07:19:20;;;;;;;10.60;2.40;;;22.00;50.30;;;;;;215494;1293;22586;-45
2022/04/02 07:24:26;;;;;;;5.00;2.50;;;21.90;50.30;;;;;;215339;1294;26370;-43
2022/04/02 07:29:32;;;;;;;6.90;2.20;;;21.90;50.60;;;;;;215814;1293;24347;-43
2022/04/02 07:34:36;;;;;;;6.30;2.40;;;21.90;50.30;;;;;;215286;1296;24476;-43
2022/04/02 07:40:00;;;;;;;8.20;2.50;;;21.90;50.40;;;;;;215690;1294;23981;-47
2022/04/02 07:45:11;;;;;;;5.40;2.40;;;22.00;50.60;;;;;;215427;1294;22588;-43
2022/04/02 07:50:18;;;;;;;6.10;3.00;;;22.00;50.40;;;;;;215809;1294;24436;-44
2022/04/02 07:55:28;;;;;;;4.50;2.20;;;22.00;50.30;;;;;;215306;1293;22622;-43
2022/04/02 08:00:34;;;;;;;10.90;2.30;;;21.90;50.20;;;;;;215264;1293;24405;-46
2022/04/02 08:05:42;;;;;;;4.30;2.50;;;21.90;50.20;;;;;;215559;1293;22607;-43
2022/04/02 08:10:52;;;;;;;3.30;2.00;;;21.90;50.00;;;;;;215627;1293;22832;-43
2022/04/02 08:16:04;;;;;;;10.20;2.40;;;22.00;50.30;;;;;;215500;1293;22585;-43
2022/04/02 08:21:09;;;;;;;4.10;2.30;;;22.00;49.90;;;;;;215011;1294;24455;-43
2022/04/02 08:26:26;;;;;;;7.30;2.60;;;22.00;49.90;;;;;;215040;1296;25346;-46
2022/04/02 08:31:44;;;;;;;5.90;2.50;;;22.00;50.20;;;;;;215177;1296;24429;-48
2022/04/02 08:37:38;;;;;;;4.60;2.50;;;22.00;50.10;;;;;;215113;1293;24467;-49
2022/04/02 08:43:21;;;;;;;7.10;2.30;;;22.00;50.50;;;;;;214463;1296;22594;-47
2022/04/02 08:48:35;;;;;;;9.30;2.10;;;22.00;50.30;;;;;;215023;1296;22602;-53
2022/04/02 08:54:06;;;;;;;10.50;2.00;;;22.10;50.70;;;;;;215290;1296;24575;-53
2022/04/02 08:59:30;;;;;;;6.50;2.00;;;22.10;50.90;;;;;;215076;1296;26361;-48
2022/04/02 09:04:48;;;;;;;6.00;2.10;;;22.20;51.10;;;;;;214791;1294;24331;-49
2022/04/02 09:10:17;;;;;;;5.00;2.00;;;22.20;50.90;;;;;;215488;1294;24443;-45
2022/04/02 09:15:47;;;;;;;5.70;2.20;;;22.20;51.10;;;;;;215430;1296;22572;-49
2022/04/02 09:21:41;;;;;;;10.20;2.70;;;22.20;51.30;;;;;;215566;1293;22594;-46
2022/04/02 09:27:08;;;;;;;9.40;2.40;;;22.20;51.30;;;;;;215868;1294;22743;-46
2022/04/02 09:33:01;;;;;;;8.20;3.00;;;22.20;51.10;;;;;;215108;1293;22590;-45
2022/04/02 09:38:23;;;;;;;9.20;1.90;;;22.20;51.00;;;;;;215811;1293;25455;-46
2022/04/02 09:43:33;;;;;;;5.20;1.80;;;22.20;50.90;;;;;;215721;1293;25467;-47
2022/04/02 09:48:53;;;;;;;12.40;2.40;;;22.20;50.90;;;;;;215889;1294;22563;-48
2022/04/02 09:54:03;;;;;;;5.50;2.00;;;22.20;51.70;;;;;;215602;1296;25284;-45
2022/04/02 09:59:45;;;;;;;6.90;2.00;;;22.20;52.50;;;;;;217853;1293;24353;-46
2022/04/02 10:05:07;;;;;;;7.70;2.30;;;22.30;52.10;;;;;;215901;1293;22840;-44
2022/04/02 10:10:15;;;;;;;8.50;2.70;;;22.30;52.40;;;;;;215459;1296;22585;-49
2022/04/02 10:15:20;;;;;;;7.50;2.40;;;22.30;51.60;;;;;;216030;1294;22577;-50
2022/04/02 10:20:31;;;;;;;9.30;2.10;;;22.30;51.50;;;;;;215882;1293;23043;-46
2022/04/02 10:26:10;;;;;;;31.40;2.30;;;22.20;51.40;;;;;;215641;1293;22589;-46
2022/04/02 10:31:50;;;;;;;13.00;2.50;;;22.30;52.10;;;;;;215905;1293;22563;-42
2022/04/02 10:37:14;;;;;;;17.80;3.00;;;22.30;51.40;;;;;;215736;1294;25389;-44
2022/04/02 10:42:57;;;;;;;10.20;2.50;;;22.20;51.40;;;;;;215938;1294;22891;-46
2022/04/02 10:49:05;;;;;;;7.10;2.20;;;22.20;51.30;;;;;;214304;1299;22604;-43
2022/04/02 10:54:27;;;;;;;7.40;2.00;;;22.30;51.30;;;;;;215645;1293;24325;-49
2022/04/02 11:00:18;;;;;;;;;;;;;;;;;;;;;
2022/04/02 11:05:39;;;;;;;11.10;2.50;;;22.40;50.80;;;;;;215277;1296;23032;-50
2022/04/02 11:10:59;;;;;;;12.50;2.50;;;22.40;50.40;;;;;;215612;1296;22593;-51
2022/04/02 11:16:24;;;;;;;9.80;3.00;;;22.40;50.40;;;;;;215808;1293;25698;-54
2022/04/02 11:21:45;;;;;;;5.20;1.90;;;22.40;50.30;;;;;;215664;1293;24304;-44
2022/04/02 11:26:56;;;;;;;10.80;2.60;;;22.40;50.50;;;;;;216196;1294;24231;-45
2022/04/02 11:32:01;;;;;;;9.50;2.60;;;22.50;50.50;;;;;;215913;1293;22569;-49
2022/04/02 11:37:31;;;;;;;15.30;2.70;;;22.50;50.00;;;;;;215298;1293;22866;-50
2022/04/02 11:42:46;;;;;;;9.10;2.50;;;22.70;50.70;;;;;;216050;1293;22563;-48
2022/04/02 11:48:09;;;;;;;16.60;2.60;;;22.70;49.70;;;;;;215548;1293;22588;-48
2022/04/02 11:53:48;;;;;;;21.90;3.20;;;22.70;50.50;;;;;;215801;1293;24424;-45
2022/04/02 11:59:05;;;;;;;23.90;3.10;;;22.70;51.40;;;;;;215801;1293;25528;-44
2022/04/02 12:04:14;;;;;;;16.00;3.30;;;22.80;50.90;;;;;;215751;1293;22797;-51
2022/04/02 12:09:24;;;;;;;23.60;3.30;;;23.00;49.70;;;;;;215955;1294;22596;-48
2022/04/02 12:14:45;;;;;;;12.70;2.80;;;22.90;49.80;;;;;;215690;1293;22568;-52
2022/04/02 12:20:01;;;;;;;18.90;2.40;;;22.90;49.80;;;;;;215771;1293;22733;-49
2022/04/02 12:25:21;;;;;;;13.00;2.80;;;22.90;49.80;;;;;;215627;1293;22608;-47
2022/04/02 12:30:39;;;;;;;7.20;2.80;;;22.80;49.60;;;;;;215597;1293;24421;-49
2022/04/02 12:36:09;;;;;;;8.20;2.50;;;22.80;49.80;;;;;;215841;1293;22569;-49
2022/04/02 12:41:23;;;;;;;11.40;2.60;;;22.70;49.90;;;;;;215757;1293;22713;-51
2022/04/02 12:46:28;;;;;;;16.90;2.90;;;22.70;49.60;;;;;;215249;1293;22648;-46
2022/04/02 12:51:33;;;;;;;14.50;2.70;;;22.70;50.30;;;;;;215895;1293;22733;-52
2022/04/02 12:56:40;;;;;;;15.00;3.10;;;22.60;49.80;;;;;;216073;1293;22558;-48
2022/04/02 13:01:46;;;;;;;16.30;3.20;;;22.60;47.50;;;;;;215491;1294;25615;-51
2022/04/02 13:06:55;;;;;;;10.80;3.10;;;22.40;45.10;;;;;;215513;1296;26574;-49
2022/04/02 13:12:04;;;;;;;11.80;3.10;;;22.40;47.40;;;;;;215917;1293;25285;-50
2022/04/02 13:17:10;;;;;;;6.80;2.40;;;22.30;46.90;;;;;;215947;1293;22711;-51
2022/04/02 13:22:27;;;;;;;10.40;2.90;;;22.30;46.80;;;;;;215827;1293;22585;-50
2022/04/02 13:27:55;;;;;;;9.10;2.90;;;22.30;46.60;;;;;;216137;1293;22564;-50
2022/04/02 13:33:36;;;;;;;5.50;2.50;;;22.30;46.60;;;;;;215944;1293;22634;-50
2022/04/02 13:38:51;;;;;;;8.90;2.50;;;22.30;46.50;;;;;;216078;1293;25358;-49
2022/04/02 13:43:58;;;;;;;10.30;3.00;;;22.30;46.90;;;;;;216053;1293;22612;-53
2022/04/02 13:49:09;;;;;;;4.80;2.50;;;22.30;46.80;;;;;;216016;1294;22562;-48
2022/04/02 13:54:51;;;;;;;13.60;2.80;;;22.30;46.30;;;;;;216075;1293;22600;-50
2022/04/02 14:00:09;;;;;;;11.50;2.90;;;22.30;43.70;;;;;;215351;1293;22563;-52
2022/04/02 14:05:38;;;;;;;10.20;2.80;;;22.30;45.90;;;;;;215036;1296;22582;-49
2022/04/02 14:11:09;;;;;;;10.60;2.40;;;22.30;47.40;;;;;;215576;1294;22593;-53
2022/04/02 14:16:29;;;;;;;12.90;4.20;;;22.20;48.10;;;;;;215616;1293;22582;-52
2022/04/02 14:22:09;;;;;;;;;;;;;;;;;;;;;
2022/04/02 14:27:53;;;;;;;12.60;6.40;;;22.30;51.30;;;;;;215226;1293;24203;-61
2022/04/02 14:34:30;;;;;;;10.60;5.00;;;22.30;51.90;;;;;;215996;1293;22652;-57
2022/04/02 14:40:33;;;;;;;18.00;6.10;;;22.20;52.40;;;;;;215699;1294;24366;-55
2022/04/02 14:46:15;;;;;;;16.90;4.90;;;22.00;54.90;;;;;;215504;1293;25273;-47
2022/04/02 14:52:13;;;;;;;19.20;6.30;;;22.10;55.50;;;;;;215299;1293;25196;-50
2022/04/02 14:58:13;;;;;;;15.90;5.20;;;22.00;56.20;;;;;;215567;1293;22749;-46
2022/04/02 15:04:01;;;;;;;13.50;5.10;;;22.10;56.60;;;;;;215276;1293;22777;-47
2022/04/02 15:09:51;;;;;;;17.90;4.40;;;22.20;57.80;;;;;;216038;1293;24046;-50
2022/04/02 15:15:18;;;;;;;11.50;3.50;;;22.20;57.80;;;;;;215527;1293;22619;-53
2022/04/02 15:20:41;;;;;;;13.70;3.80;;;22.20;58.20;;;;;;215821;1293;22585;-46
2022/04/02 15:26:30;;;;;;;13.80;3.80;;;22.20;57.40;;;;;;215548;1293;25429;-55
2022/04/02 15:32:03;;;;;;;9.60;3.70;;;22.20;57.20;;;;;;215786;1293;23075;-53
2022/04/02 15:37:40;;;;;;;11.20;3.50;;;22.20;57.10;;;;;;215866;1293;22682;-52
2022/04/02 15:43:02;;;;;;;12.00;4.50;;;22.10;56.90;;;;;;216105;1293;24407;-50
2022/04/02 15:48:14;;;;;;;14.90;3.90;;;22.10;55.80;;;;;;215672;1293;24418;-56
2022/04/02 15:53:30;;;;;;;10.10;3.60;;;22.10;56.10;;;;;;216125;1293;25575;-46
2022/04/02 15:59:13;;;;;;;8.40;3.00;;;22.10;55.90;;;;;;215735;1293;22767;-50
2022/04/02 16:04:38;;;;;;;11.50;2.90;;;22.10;56.20;;;;;;215549;1294;22577;-53
2022/04/02 16:10:20;;;;;;;7.50;2.70;;;22.10;56.50;;;;;;215770;1294;22589;-53
2022/04/02 16:15:35;;;;;;;6.40;3.00;;;22.10;56.30;;;;;;215749;1293;24268;-46
2022/04/02 16:20:54;;;;;;;7.10;3.00;;;22.10;55.10;;;;;;215431;1296;24357;-47
2022/04/02 16:26:12;;;;;;;7.50;2.60;;;22.00;54.80;;;;;;216159;1293;24421;-49
2022/04/02 16:31:51;;;;;;;7.80;2.70;;;22.00;55.40;;;;;;215800;1293;24365;-48
2022/04/02 16:37:28;;;;;;;10.20;2.60;;;22.00;54.00;;;;;;215948;1293;24415;-48
2022/04/02 16:42:41;;;;;;;8.50;2.80;;;22.00;54.20;;;;;;215691;1293;22725;-45
2022/04/02 16:48:07;;;;;;;10.20;3.00;;;22.00;53.90;;;;;;215737;1293;267836;-49
2022/04/02 16:53:32;;;;;;;12.00;3.10;;;21.90;54.10;;;;;;215623;1293;22606;-51
2022/04/02 16:58:56;;;;;;;14.20;2.70;;;21.90;53.30;;;;;;216003;1293;26657;-47
2022/04/02 17:04:39;;;;;;;9.40;2.60;;;21.90;54.50;;;;;;215362;1296;24722;-48
2022/04/02 17:09:53;;;;;;;7.40;2.80;;;21.90;54.40;;;;;;215429;1296;25293;-48
2022/04/02 17:15:14;;;;;;;8.90;2.70;;;21.90;54.20;;;;;;215457;1293;25353;-52
2022/04/02 17:20:43;;;;;;;10.20;2.80;;;21.70;53.70;;;;;;215780;1293;24270;-50
2022/04/02 17:26:30;;;;;;;6.90;2.90;;;21.60;53.40;;;;;;215576;1294;23882;-46
2022/04/02 17:31:51;;;;;;;6.40;2.30;;;21.70;54.50;;;;;;215920;1293;23951;-50
2022/04/02 17:37:43;;;;;;;7.60;2.50;;;21.70;55.00;;;;;;215705;1293;22836;-54
2022/04/02 17:43:04;;;;;;;7.10;2.80;;;21.70;54.70;;;;;;215969;1293;24338;-47
2022/04/02 17:48:29;;;;;;;6.50;2.60;;;21.70;55.30;;;;;;215239;1296;22605;-53
2022/04/02 17:53:48;;;;;;;8.10;2.60;;;21.70;55.80;;;;;;216041;1293;22572;-55
2022/04/02 17:59:32;;;;;;;6.00;2.70;;;21.90;54.40;;;;;;215739;1293;22582;-53
2022/04/02 18:05:09;;;;;;;6.40;2.10;;;22.10;53.10;;;;;;215130;1296;24397;-51
2022/04/02 18:10:23;;;;;;;9.30;2.40;;;22.20;53.70;;;;;;215698;1293;22591;-48
2022/04/02 18:15:49;;;;;;;7.10;2.60;;;22.20;52.70;;;;;;215451;1293;22671;-54
2022/04/02 18:21:05;;;;;;;5.50;2.50;;;22.40;53.00;;;;;;215814;1293;22678;-49
2022/04/02 18:26:31;;;;;;;7.60;2.50;;;22.40;52.50;;;;;;215479;1294;24306;-52
2022/04/02 18:31:46;;;;;;;5.10;2.30;;;22.40;52.80;;;;;;215315;1293;22547;-51
2022/04/02 18:37:03;;;;;;;7.70;2.30;;;22.40;52.30;;;;;;215516;1293;24272;-49
2022/04/02 18:42:20;;;;;;;7.60;2.30;;;22.40;52.80;;;;;;215529;1293;25430;-46
2022/04/02 18:47:39;;;;;;;;;;;22.40;53.70;;;;;;215558;1293;22592;-46
2022/04/02 18:52:59;;;;;;;5.80;2.60;;;22.40;53.20;;;;;;215223;1293;24367;-46
2022/04/02 18:58:22;;;;;;;9.90;2.90;;;22.30;53.10;;;;;;215749;1293;23100;-46
2022/04/02 19:03:43;;;;;;;8.00;2.60;;;22.30;54.00;;;;;;215407;1293;25518;-46
2022/04/02 19:09:17;;;;;;;7.10;2.50;;;22.30;52.90;;;;;;215831;1293;26223;-47
2022/04/02 19:14:38;;;;;;;6.20;2.90;;;22.20;52.80;;;;;;215739;1293;25447;-45
2022/04/02 19:19:59;;;;;;;5.60;2.40;;;22.20;53.10;;;;;;215551;1293;25333;-46
2022/04/02 19:25:36;;;;;;;6.10;2.30;;;22.00;52.90;;;;;;215037;1296;24435;-46
2022/04/02 19:31:12;;;;;;;7.10;2.90;;;22.00;52.90;;;;;;215598;1294;22629;-45
2022/04/02 19:36:46;;;;;;;9.60;2.80;;;21.90;53.10;;;;;;215158;1296;22580;-46
2022/04/02 19:42:13;;;;;;;5.70;2.50;;;22.10;53.50;;;;;;214981;1296;22563;-47
2022/04/02 19:47:42;;;;;;;7.10;2.70;;;22.30;52.80;;;;;;215510;1293;25416;-51
2022/04/02 19:53:21;;;;;;;9.80;2.70;;;22.40;54.40;;;;;;215067;1296;22599;-52
2022/04/02 19:59:09;;;;;;;19.20;3.40;;;22.40;53.40;;;;;;215579;1293;24330;-51
2022/04/02 20:04:59;;;;;;;10.50;2.90;;;22.30;54.60;;;;;;215651;1293;24418;-51
2022/04/02 20:10:21;;;;;;;10.10;3.10;;;22.40;54.60;;;;;;215731;1293;22685;-52
2022/04/02 20:16:03;;;;;;;9.00;3.30;;;22.50;54.80;;;;;;215277;1293;23146;-52
2022/04/02 20:21:32;;;;;;;8.00;2.60;;;22.50;54.80;;;;;;215920;1294;22581;-55
2022/04/02 20:26:58;;;;;;;5.80;2.60;;;22.60;54.30;;;;;;215893;1293;24805;-50
2022/04/02 20:32:18;;;;;;;10.20;3.20;;;22.40;55.40;;;;;;215639;1294;25331;-52
2022/04/02 20:38:18;;;;;;;12.30;3.20;;;22.40;55.20;;;;;;215698;1293;22579;-52
2022/04/02 20:43:16;;;;;;;11.80;3.80;;;22.30;55.40;;;;;;215600;1293;22578;-55
2022/04/02 20:48:22;;;;;;;11.20;3.40;;;22.60;55.50;;;;;;215232;1292;22741;-56
2022/04/02 20:53:31;;;;;;;11.50;2.80;;;22.70;54.60;;;;;;215679;1294;22592;-53
2022/04/02 20:58:43;;;;;;;8.60;3.10;;;22.70;54.30;;;;;;215476;1294;25575;-55
2022/04/02 21:04:10;;;;;;;10.50;3.10;;;22.60;55.30;;;;;;215625;1294;24290;-54
2022/04/02 21:09:32;;;;;;;;;;;;;;;;;;;;;
2022/04/02 21:14:59;;;;;;;9.70;3.10;;;22.70;54.70;;;;;;215741;1293;25296;-52
2022/04/02 21:20:16;;;;;;;8.10;3.20;;;22.80;53.80;;;;;;215710;1293;24437;-51
2022/04/02 21:25:27;;;;;;;13.10;3.80;;;22.90;54.00;;;;;;215626;1293;22548;-53
2022/04/02 21:30:42;;;;;;;11.90;4.10;;;23.00;53.60;;;;;;215905;1294;24096;-55
2022/04/02 21:35:51;;;;;;;14.20;2.80;;;23.20;57.00;;;;;;215608;1293;22672;-56
2022/04/02 21:41:07;;;;;;;10.30;3.40;;;23.40;55.60;;;;;;215690;1293;23231;-55
2022/04/02 21:46:32;;;;;;;9.10;3.30;;;23.50;55.40;;;;;;215376;1293;22564;-50
2022/04/02 21:52:04;;;;;;;14.20;3.50;;;23.50;54.90;;;;;;215598;1293;22588;-52
2022/04/02 21:57:57;;;;;;;8.20;2.90;;;23.50;54.50;;;;;;215640;1293;24577;-52
2022/04/02 22:03:20;;;;;;;8.10;3.20;;;23.40;54.80;;;;;;215775;1294;25239;-52
2022/04/02 22:08:32;;;;;;;8.40;3.20;;;23.30;54.40;;;;;;215732;1294;26531;-54
2022/04/02 22:13:37;;;;;;;6.30;2.40;;;23.30;54.30;;;;;;215622;1293;25376;-52
2022/04/02 22:18:42;;;;;;;8.50;3.00;;;23.30;54.70;;;;;;215334;1293;22654;-53
2022/04/02 22:23:55;;;;;;;6.40;3.00;;;23.30;54.50;;;;;;215461;1293;22668;-53
2022/04/02 22:29:09;;;;;;;8.80;2.80;;;23.30;54.20;;;;;;215377;1294;22768;-53
2022/04/02 22:34:19;;;;;;;6.50;2.90;;;23.40;53.80;;;;;;215488;1294;22623;-52
2022/04/02 22:39:23;;;;;;;4.40;2.40;;;23.50;53.80;;;;;;215132;1296;24335;-51
2022/04/02 22:44:29;;;;;;;8.40;2.70;;;23.60;53.50;;;;;;215532;1293;24708;-55
2022/04/02 22:49:33;;;;;;;6.10;2.50;;;23.60;53.30;;;;;;215819;1294;24172;-53
2022/04/02 22:54:41;;;;;;;7.10;2.90;;;23.70;52.90;;;;;;215826;1293;24869;-54
2022/04/02 22:59:49;;;;;;;5.90;3.00;;;23.70;52.90;;;;;;216052;1293;25387;-52
2022/04/02 23:04:54;;;;;;;5.80;2.70;;;23.70;52.90;;;;;;215796;1294;24157;-54
2022/04/02 23:10:03;;;;;;;6.40;2.90;;;23.70;52.60;;;;;;215577;1294;25526;-51
2022/04/02 23:15:09;;;;;;;6.00;2.70;;;23.70;52.30;;;;;;215120;1296;22582;-54
2022/04/02 23:20:14;;;;;;;4.90;2.80;;;23.70;52.40;;;;;;215963;1294;22893;-53
2022/04/02 23:25:23;;;;;;;5.10;2.50;;;23.60;52.60;;;;;;215872;1294;24017;-49
2022/04/02 23:30:32;;;;;;;5.60;3.00;;;23.50;53.00;;;;;;215600;1293;24346;-53
2022/04/02 23:35:35;;;;;;;7.30;2.90;;;23.50;52.60;;;;;;215139;1293;24051;-54
2022/04/02 23:40:45;;;;;;;5.90;2.80;;;23.50;53.30;;;;;;216187;1293;24201;-50
2022/04/02 23:45:48;;;;;;;7.80;2.70;;;23.50;53.30;;;;;;215859;1293;25665;-55
2022/04/02 23:50:52;;;;;;;7.60;3.30;;;23.50;53.30;;;;;;215851;1294;25639;-52
2022/04/02 23:56:07;;;;;;;10.20;3.50;;;23.50;53.70;;;;;;215741;1294;24593;-53
